ICE511 EHAM-EFHK
Flight info
| Callsign | ICE511 |
|---|---|
| Flight time | N/A |
| Altitude | 39000 |
| Route | ANDIK N873 JUIST DCT DOSUR DCT RASMU DCT ROGMI DCT ALAMI DCT OKEVU DCT EVADI Y370 DIVAM |
| Aircraft | A20N/M-SDE2E3FGHIRWXY/LB1 |
Departure
| Time | 2026-04-30 19:08 |
|---|---|
| Airport | Amsterdam Airport Schiphol (EHAM) |
Arrival
| Time | N/A |
|---|---|
| Airport | Helsinki Vantaa Airport (EFHK) |
| Time | Latitude | Longitude | Altitude | Speed | Heading |
|---|---|---|---|---|---|
| 2026-04-30 18:30 | 52.30997 | 4.77240 | -3 ft | 0 kts | 182° |
| 2026-04-30 18:42 | 52.30995 | 4.77363 | -3 ft | 0 kts | 182° |
| 2026-04-30 18:54 | 52.31001 | 4.77363 | -3 ft | 1 kts | 182° |
| 2026-04-30 18:54 | 52.31009 | 4.77363 | -3 ft | 1 kts | 182° |
| 2026-04-30 18:55 | 52.31017 | 4.77364 | -3 ft | 1 kts | 182° |
| 2026-04-30 18:55 | 52.31032 | 4.77365 | -3 ft | 1 kts | 182° |
| 2026-04-30 18:55 | 52.31040 | 4.77365 | -3 ft | 1 kts | 182° |
| 2026-04-30 18:56 | 52.31056 | 4.77365 | -3 ft | 1 kts | 162° |
| 2026-04-30 18:56 | 52.31063 | 4.77361 | -3 ft | 1 kts | 147° |
| 2026-04-30 18:56 | 52.31070 | 4.77354 | -3 ft | 1 kts | 140° |
| 2026-04-30 18:57 | 52.31081 | 4.77335 | -3 ft | 1 kts | 106° |
| 2026-04-30 18:57 | 52.31082 | 4.77330 | -3 ft | 0 kts | 95° |
| 2026-04-30 19:00 | 52.31082 | 4.77331 | -3 ft | 1 kts | 95° |
| 2026-04-30 19:01 | 52.31079 | 4.77431 | -3 ft | 7 kts | 81° |
| 2026-04-30 19:01 | 52.31117 | 4.77490 | -3 ft | 9 kts | 23° |
| 2026-04-30 19:02 | 52.31220 | 4.77640 | -3 ft | 13 kts | 6° |
| 2026-04-30 19:02 | 52.31434 | 4.77644 | -3 ft | 18 kts | 346° |
| 2026-04-30 19:03 | 52.31577 | 4.77321 | -4 ft | 21 kts | 269° |
| 2026-04-30 19:03 | 52.31559 | 4.76776 | -4 ft | 27 kts | 266° |
| 2026-04-30 19:04 | 52.31537 | 4.76120 | -3 ft | 31 kts | 268° |
| 2026-04-30 19:04 | 52.31512 | 4.75368 | -4 ft | 34 kts | 266° |
| 2026-04-30 19:05 | 52.31489 | 4.74759 | -3 ft | 17 kts | 274° |
| 2026-04-30 19:05 | 52.31551 | 4.74667 | -3 ft | 0 kts | 352° |
| 2026-04-30 19:06 | 52.31563 | 4.74664 | -3 ft | 6 kts | 352° |
| 2026-04-30 19:07 | 52.31674 | 4.74821 | -3 ft | 23 kts | 88° |
| 2026-04-30 19:07 | 52.31690 | 4.75411 | -5 ft | 83 kts | 86° |
| 2026-04-30 19:08 | 52.31804 | 4.78307 | 52 ft | 163 kts | 86° |
| 2026-04-30 19:08 | 52.32007 | 4.82080 | 1312 ft | 152 kts | 86° |
| 2026-04-30 19:08 | 52.32127 | 4.83717 | 2118 ft | 145 kts | 88° |
| 2026-04-30 19:09 | 52.32333 | 4.87484 | 2711 ft | 191 kts | 89° |
| 2026-04-30 19:09 | 52.32601 | 4.89785 | 3085 ft | 222 kts | 75° |
| 2026-04-30 19:09 | 52.33361 | 4.92172 | 3613 ft | 253 kts | 59° |
| 2026-04-30 19:10 | 52.35485 | 4.96901 | 5444 ft | 262 kts | 58° |
| 2026-04-30 19:10 | 52.37654 | 5.01753 | 6183 ft | 268 kts | 52° |
| 2026-04-30 19:11 | 52.39202 | 5.03527 | 6304 ft | 281 kts | 25° |
| 2026-04-30 19:11 | 52.43188 | 5.03967 | 6549 ft | 294 kts | 2° |
| 2026-04-30 19:11 | 52.45243 | 5.03892 | 7357 ft | 294 kts | 2° |
| 2026-04-30 19:12 | 52.47280 | 5.03820 | 8431 ft | 293 kts | 2° |
| 2026-04-30 19:12 | 52.49336 | 5.03751 | 9374 ft | 298 kts | 2° |
| 2026-04-30 19:12 | 52.51422 | 5.03688 | 10282 ft | 302 kts | 2° |
| 2026-04-30 19:13 | 52.55789 | 5.04284 | 11203 ft | 333 kts | 24° |
| 2026-04-30 19:13 | 52.60148 | 5.07519 | 12532 ft | 346 kts | 37° |
| 2026-04-30 19:13 | 52.62040 | 5.09969 | 13070 ft | 348 kts | 44° |
| 2026-04-30 19:14 | 52.63851 | 5.12535 | 13268 ft | 348 kts | 45° |
| 2026-04-30 19:14 | 52.65675 | 5.15165 | 13331 ft | 349 kts | 45° |
| 2026-04-30 19:14 | 52.67499 | 5.17794 | 13374 ft | 350 kts | 45° |
| 2026-04-30 19:14 | 52.69289 | 5.20534 | 13878 ft | 350 kts | 53° |
| 2026-04-30 19:15 | 52.70819 | 5.23648 | 14731 ft | 350 kts | 55° |
| 2026-04-30 19:15 | 52.73900 | 5.29978 | 16199 ft | 358 kts | 55° |
| 2026-04-30 19:15 | 52.75465 | 5.33205 | 16917 ft | 362 kts | 55° |
| 2026-04-30 19:16 | 52.77044 | 5.36467 | 17638 ft | 366 kts | 55° |
| 2026-04-30 19:16 | 52.78612 | 5.39712 | 18332 ft | 369 kts | 55° |
| 2026-04-30 19:16 | 52.81849 | 5.46426 | 19598 ft | 376 kts | 54° |
| 2026-04-30 19:17 | 52.83485 | 5.49829 | 20204 ft | 380 kts | 54° |
| 2026-04-30 19:17 | 52.86802 | 5.56740 | 21408 ft | 387 kts | 54° |
| 2026-04-30 19:17 | 52.88487 | 5.60257 | 21989 ft | 391 kts | 54° |
| 2026-04-30 19:18 | 52.91318 | 5.66176 | 22956 ft | 398 kts | 54° |
| 2026-04-30 19:18 | 52.93624 | 5.71008 | 23731 ft | 403 kts | 53° |
| 2026-04-30 19:18 | 52.95372 | 5.74675 | 24240 ft | 406 kts | 53° |
| 2026-04-30 19:19 | 52.97126 | 5.78360 | 24741 ft | 409 kts | 53° |
| 2026-04-30 19:19 | 52.98867 | 5.82023 | 25169 ft | 411 kts | 53° |
| 2026-04-30 19:19 | 53.02420 | 5.89512 | 25356 ft | 413 kts | 53° |
| 2026-04-30 19:20 | 53.04193 | 5.93259 | 25362 ft | 413 kts | 53° |
| 2026-04-30 19:20 | 53.05967 | 5.97014 | 25361 ft | 413 kts | 53° |
| 2026-04-30 19:20 | 53.09507 | 6.04524 | 25364 ft | 413 kts | 53° |
| 2026-04-30 19:21 | 53.11281 | 6.08296 | 25397 ft | 415 kts | 53° |
| 2026-04-30 19:21 | 53.14822 | 6.15841 | 26413 ft | 417 kts | 53° |
| 2026-04-30 19:22 | 53.18413 | 6.23519 | 27307 ft | 423 kts | 53° |
| 2026-04-30 19:22 | 53.23880 | 6.35247 | 28581 ft | 430 kts | 53° |
| 2026-04-30 19:23 | 53.29415 | 6.47181 | 29750 ft | 437 kts | 53° |
| 2026-04-30 19:24 | 53.33156 | 6.55279 | 30452 ft | 442 kts | 52° |
| 2026-04-30 19:24 | 53.35111 | 6.59214 | 30768 ft | 444 kts | 46° |
| 2026-04-30 19:24 | 53.39642 | 6.66288 | 31414 ft | 448 kts | 43° |
| 2026-04-30 19:25 | 53.46515 | 6.76893 | 32676 ft | 446 kts | 43° |
| 2026-04-30 19:26 | 53.51059 | 6.83929 | 33516 ft | 443 kts | 42° |
| 2026-04-30 19:26 | 53.55582 | 6.90935 | 34332 ft | 441 kts | 42° |
| 2026-04-30 19:26 | 53.57821 | 6.94452 | 34675 ft | 440 kts | 44° |
| 2026-04-30 19:27 | 53.62109 | 7.01694 | 35239 ft | 439 kts | 45° |
| 2026-04-30 19:27 | 53.66403 | 7.09001 | 35849 ft | 438 kts | 44° |
| 2026-04-30 19:28 | 53.68549 | 7.12634 | 36118 ft | 437 kts | 44° |
| 2026-04-30 19:28 | 53.72847 | 7.19903 | 36638 ft | 437 kts | 44° |
| 2026-04-30 19:29 | 53.77135 | 7.27173 | 37138 ft | 436 kts | 44° |
| 2026-04-30 19:29 | 53.79267 | 7.30796 | 37385 ft | 435 kts | 44° |
| 2026-04-30 19:30 | 53.85633 | 7.41648 | 38061 ft | 434 kts | 44° |
| 2026-04-30 19:30 | 53.89879 | 7.48915 | 38487 ft | 434 kts | 44° |
| 2026-04-30 19:31 | 53.94119 | 7.56192 | 38862 ft | 433 kts | 44° |
| 2026-04-30 19:31 | 53.96236 | 7.59835 | 39057 ft | 433 kts | 44° |
| 2026-04-30 19:31 | 54.00459 | 7.67119 | 39329 ft | 433 kts | 44° |
| 2026-04-30 19:32 | 54.04656 | 7.74378 | 39440 ft | 433 kts | 44° |
| 2026-04-30 19:32 | 54.08860 | 7.81674 | 39442 ft | 432 kts | 44° |
| 2026-04-30 19:33 | 54.13071 | 7.89001 | 39446 ft | 432 kts | 44° |
| 2026-04-30 19:33 | 54.17270 | 7.96331 | 39444 ft | 432 kts | 44° |
| 2026-04-30 19:34 | 54.21467 | 8.03681 | 39450 ft | 432 kts | 44° |
| 2026-04-30 19:35 | 54.27723 | 8.14680 | 39448 ft | 432 kts | 44° |
| 2026-04-30 19:35 | 54.31912 | 8.22072 | 39452 ft | 432 kts | 44° |
| 2026-04-30 19:36 | 54.36096 | 8.29480 | 39449 ft | 432 kts | 44° |
| 2026-04-30 19:36 | 54.42360 | 8.40612 | 39450 ft | 432 kts | 44° |
| 2026-04-30 19:37 | 54.46504 | 8.48006 | 39449 ft | 432 kts | 45° |
| 2026-04-30 19:37 | 54.50673 | 8.55467 | 39446 ft | 432 kts | 45° |
| 2026-04-30 19:38 | 54.54832 | 8.62936 | 39443 ft | 432 kts | 45° |
| 2026-04-30 19:38 | 54.58993 | 8.70429 | 39440 ft | 432 kts | 45° |
| 2026-04-30 19:39 | 54.63148 | 8.77936 | 39438 ft | 433 kts | 45° |
| 2026-04-30 19:39 | 54.67301 | 8.85464 | 39444 ft | 433 kts | 45° |
| 2026-04-30 19:40 | 54.71447 | 8.93002 | 39438 ft | 433 kts | 45° |
| 2026-04-30 19:40 | 54.75565 | 9.00513 | 39439 ft | 433 kts | 45° |
| 2026-04-30 19:41 | 54.79704 | 9.08087 | 39439 ft | 433 kts | 45° |
| 2026-04-30 19:41 | 54.83849 | 9.15692 | 39433 ft | 433 kts | 45° |
| 2026-04-30 19:42 | 54.87762 | 9.23666 | 39438 ft | 435 kts | 51° |
| 2026-04-30 19:42 | 54.91448 | 9.31907 | 39439 ft | 435 kts | 50° |
| 2026-04-30 19:43 | 54.95181 | 9.40180 | 39448 ft | 435 kts | 50° |
| 2026-04-30 19:44 | 55.00754 | 9.52636 | 39453 ft | 435 kts | 51° |
| 2026-04-30 19:44 | 55.04464 | 9.60984 | 39458 ft | 436 kts | 51° |
| 2026-04-30 19:45 | 55.08168 | 9.69352 | 39457 ft | 436 kts | 51° |
| 2026-04-30 19:45 | 55.11866 | 9.77733 | 39457 ft | 436 kts | 51° |
| 2026-04-30 19:46 | 55.15559 | 9.86131 | 39456 ft | 436 kts | 51° |
| 2026-04-30 19:46 | 55.19227 | 9.94499 | 39460 ft | 436 kts | 51° |
| 2026-04-30 19:47 | 55.22905 | 10.02920 | 39452 ft | 436 kts | 51° |
| 2026-04-30 19:47 | 55.26576 | 10.11355 | 39458 ft | 435 kts | 51° |
| 2026-04-30 19:48 | 55.30248 | 10.19819 | 39457 ft | 435 kts | 51° |
| 2026-04-30 19:48 | 55.33907 | 10.28284 | 39453 ft | 435 kts | 51° |
| 2026-04-30 19:49 | 55.37557 | 10.36758 | 39460 ft | 435 kts | 51° |
| 2026-04-30 19:49 | 55.42997 | 10.49441 | 39456 ft | 434 kts | 51° |
| 2026-04-30 19:50 | 55.46627 | 10.57939 | 39452 ft | 434 kts | 52° |
| 2026-04-30 19:50 | 55.50251 | 10.66454 | 39452 ft | 434 kts | 52° |
| 2026-04-30 19:51 | 55.53864 | 10.74972 | 39446 ft | 434 kts | 52° |
| 2026-04-30 19:51 | 55.57450 | 10.83458 | 39444 ft | 433 kts | 52° |
| 2026-04-30 19:52 | 55.61047 | 10.91996 | 39438 ft | 433 kts | 52° |
| 2026-04-30 19:52 | 55.64639 | 11.00555 | 39439 ft | 433 kts | 52° |
| 2026-04-30 19:53 | 55.68224 | 11.09124 | 39436 ft | 433 kts | 52° |
| 2026-04-30 19:53 | 55.71774 | 11.17642 | 39441 ft | 433 kts | 52° |
| 2026-04-30 19:54 | 55.75343 | 11.26235 | 39440 ft | 432 kts | 52° |
| 2026-04-30 19:54 | 55.78902 | 11.34834 | 39437 ft | 432 kts | 52° |
| 2026-04-30 19:55 | 55.82458 | 11.43455 | 39435 ft | 432 kts | 52° |
| 2026-04-30 19:55 | 55.86003 | 11.52081 | 39436 ft | 432 kts | 52° |
| 2026-04-30 19:56 | 55.89519 | 11.60665 | 39431 ft | 432 kts | 52° |
| 2026-04-30 19:56 | 55.93049 | 11.69314 | 39437 ft | 431 kts | 52° |
| 2026-04-30 19:57 | 55.96572 | 11.77976 | 39433 ft | 431 kts | 52° |
| 2026-04-30 19:57 | 56.00085 | 11.86645 | 39436 ft | 431 kts | 52° |
| 2026-04-30 19:58 | 56.03567 | 11.95270 | 39435 ft | 430 kts | 52° |
| 2026-04-30 19:58 | 56.07063 | 12.03957 | 39431 ft | 430 kts | 52° |
| 2026-04-30 19:59 | 56.10547 | 12.12647 | 39433 ft | 429 kts | 52° |
| 2026-04-30 20:00 | 56.15759 | 12.25702 | 39422 ft | 429 kts | 52° |